createdAt,value
2023-11-12T11:07:07.094Z,96045.94
2023-11-12T11:09:33.699Z,96038.28
2023-11-12T11:12:00.313Z,96039.97
2023-11-12T11:14:26.903Z,96048.34
2023-11-12T11:16:53.622Z,96051.72
2023-11-12T11:19:20.316Z,96038.53
2023-11-12T11:21:46.895Z,96047.41
2023-11-12T11:24:13.466Z,96049.25
2023-11-12T11:26:40.072Z,96056.59
2023-11-12T11:29:06.792Z,96045.53
2023-11-12T11:31:33.363Z,96045.34
2023-11-12T11:33:59.991Z,96049.59
2023-11-12T11:36:26.675Z,96040.47
2023-11-12T11:38:55.705Z,96050.03
2023-11-12T12:39:28.534Z,96053.63
2023-11-12T12:41:55.164Z,96065.06
2023-11-12T12:44:21.795Z,96064.88
2023-11-12T12:46:48.572Z,96076.16
2023-11-12T12:49:15.225Z,96087.84
2023-11-12T12:51:41.852Z,96093.94
2023-11-12T12:54:08.500Z,96088.63
2023-11-12T12:56:35.095Z,96087.91
2023-11-12T12:59:01.712Z,96087.53
2023-11-12T13:01:28.345Z,96101.59
2023-11-12T13:03:55.020Z,96101.50
2023-11-12T13:06:21.629Z,96105.72
2023-11-12T13:08:48.219Z,96103.53
2023-11-12T13:11:14.785Z,96099.91
2023-11-12T13:13:41.368Z,96098.78
2023-11-12T13:16:08.057Z,96103.56
2023-11-12T13:18:34.722Z,96119.47
2023-11-12T13:21:01.310Z,96124.47
2023-11-12T13:23:27.872Z,96122.69
2023-11-12T13:25:54.435Z,96134.78
2023-11-12T13:28:21.011Z,96139.78
2023-11-12T13:30:47.732Z,96146.22
2023-11-12T13:33:14.354Z,96139.50
2023-11-12T13:35:40.960Z,96125.31
2023-11-12T13:38:07.527Z,96131.53
2023-11-12T13:40:34.116Z,96134.19
2023-11-12T13:43:00.723Z,96152.34
2023-11-12T13:45:27.354Z,96160.22
2023-11-12T13:47:53.983Z,96151.78
2023-11-12T13:50:20.617Z,96152.06
2023-11-12T13:52:47.208Z,96153.53
2023-11-12T13:55:13.820Z,96163.13
2023-11-12T13:57:40.396Z,96168.16
2023-11-12T14:00:07.003Z,96167.00
2023-11-12T14:02:33.640Z,96159.19
2023-11-12T14:05:00.258Z,96162.28
2023-11-12T14:07:26.808Z,96171.03
2023-11-12T14:09:53.395Z,96186.00
2023-11-12T14:12:19.989Z,96173.41
2023-11-12T14:14:46.576Z,96180.28
2023-11-12T14:17:13.171Z,96184.63
2023-11-12T14:19:39.748Z,96195.25
2023-11-12T14:22:06.428Z,96200.31
2023-11-12T14:24:33.035Z,96205.81
2023-11-12T14:26:59.609Z,96206.41
2023-11-12T14:29:26.159Z,96203.94
2023-11-12T14:31:52.705Z,96206.28
2023-11-12T14:34:19.337Z,96211.81
2023-11-12T14:36:45.976Z,96229.53
2023-11-12T14:39:12.580Z,96211.84
2023-11-12T14:41:39.162Z,96203.53
2023-11-12T14:44:05.747Z,96215.50
2023-11-12T14:46:32.405Z,96221.78
2023-11-12T14:48:59.014Z,96221.25
2023-11-12T14:51:25.730Z,96221.47
2023-11-12T14:54:00.766Z,96224.94
2023-11-12T14:56:31.977Z,96221.53
2023-11-12T14:58:58.637Z,96228.88
2023-11-12T15:01:25.266Z,96237.38
2023-11-12T15:03:51.924Z,96231.34
2023-11-12T15:06:18.586Z,96241.59
2023-11-12T15:08:45.219Z,96236.69
2023-11-12T15:11:11.806Z,96241.91
2023-11-12T15:13:38.358Z,96247.69
2023-11-12T15:16:05.143Z,96256.56
2023-11-12T15:18:31.785Z,96256.00
2023-11-12T15:20:58.406Z,96258.44
2023-11-12T15:23:24.968Z,96270.84
2023-11-12T15:25:51.586Z,96269.97
2023-11-12T15:28:18.176Z,96274.56
2023-11-12T15:30:44.871Z,96275.41
2023-11-12T15:33:11.558Z,96280.22
2023-11-12T15:35:38.133Z,96271.84
2023-11-12T15:38:04.727Z,96270.13
2023-11-12T15:40:31.347Z,96282.44
2023-11-12T15:42:57.916Z,96289.88
2023-11-12T15:45:24.640Z,96292.34
2023-11-12T15:47:51.369Z,96297.13
2023-11-12T15:50:18.145Z,96305.75
2023-11-12T15:52:44.838Z,96309.56
2023-11-12T15:55:11.520Z,96309.81
2023-11-12T15:57:38.486Z,96317.97
2023-11-12T16:00:05.098Z,96323.22
2023-11-12T16:02:31.703Z,96324.94
2023-11-12T16:04:58.472Z,96323.81
2023-11-12T16:07:25.113Z,96324.44
2023-11-12T16:09:51.723Z,96318.75
2023-11-12T16:12:18.313Z,96335.97
2023-11-12T16:14:44.875Z,96325.47
2023-11-12T16:17:11.456Z,96333.78
2023-11-12T16:19:38.051Z,96332.56
2023-11-12T16:22:04.722Z,96340.09
2023-11-12T16:24:31.381Z,96322.06
2023-11-12T16:26:57.982Z,96323.31
2023-11-12T16:29:24.531Z,96330.88
2023-11-12T16:31:51.117Z,96335.31
2023-11-12T16:34:17.690Z,96334.16
2023-11-12T16:36:44.306Z,96340.13
2023-11-12T16:39:10.873Z,96351.88
2023-11-12T16:41:37.523Z,96347.84
2023-11-12T16:44:04.120Z,96358.38
2023-11-12T16:46:30.741Z,96364.03
2023-11-12T16:48:57.352Z,96347.50
2023-11-12T16:51:23.961Z,96358.16
2023-11-12T16:53:50.582Z,96351.16
2023-11-12T16:56:17.148Z,96364.34
2023-11-12T16:58:43.709Z,96356.78
2023-11-12T17:01:10.315Z,96359.34
2023-11-12T17:03:37.003Z,96362.25
2023-11-12T17:06:03.648Z,96366.78
2023-11-12T17:08:30.272Z,96365.97
2023-11-12T17:10:57.031Z,96360.38
2023-11-12T17:13:23.631Z,96358.38
2023-11-12T17:15:50.264Z,96362.56
2023-11-12T17:18:16.956Z,96364.69
2023-11-12T17:20:43.563Z,96374.09
2023-11-12T17:23:10.099Z,96372.44
2023-11-12T17:25:36.681Z,96374.22
2023-11-12T17:28:03.347Z,96371.31
2023-11-12T17:30:30.000Z,96382.25
2023-11-12T17:32:56.643Z,96388.19
2023-11-12T17:35:23.290Z,96402.09
2023-11-12T17:37:49.896Z,96396.56
2023-11-12T17:40:16.504Z,96400.09
2023-11-12T17:42:43.191Z,96390.31
2023-11-12T17:45:09.813Z,96387.63
2023-11-12T17:47:36.386Z,96393.09
2023-11-12T17:50:02.943Z,96406.47
2023-11-12T17:52:29.531Z,96421.13
2023-11-12T17:54:56.182Z,96425.88
2023-11-12T17:57:22.752Z,96437.19
2023-11-12T17:59:49.337Z,96437.09
2023-11-12T18:02:15.957Z,96442.44
2023-11-12T18:04:42.693Z,96452.97
2023-11-12T18:07:09.399Z,96442.59
2023-11-12T18:09:36.001Z,96445.44
2023-11-12T18:12:02.581Z,96447.41
2023-11-12T18:14:29.149Z,96446.78
2023-11-12T18:16:55.778Z,96447.56
2023-11-12T18:19:22.360Z,96453.78
2023-11-12T18:21:48.971Z,96447.75
2023-11-12T18:24:15.539Z,96451.25
2023-11-12T18:26:42.187Z,96457.66
2023-11-12T18:29:08.781Z,96460.75
2023-11-12T18:31:35.539Z,96457.56
2023-11-12T18:34:02.256Z,96461.44
2023-11-12T18:36:28.855Z,96461.13
2023-11-12T18:38:55.458Z,96474.53
2023-11-12T18:41:22.073Z,96482.06
2023-11-12T18:43:48.659Z,96476.59
2023-11-12T18:46:15.391Z,96478.97
2023-11-12T18:48:42.073Z,96484.63
2023-11-12T18:51:08.678Z,96482.19
2023-11-12T18:53:35.283Z,96482.63
2023-11-12T18:56:01.889Z,96491.16
2023-11-12T18:58:28.541Z,96490.72
2023-11-12T19:00:55.142Z,96492.66
2023-11-12T19:03:21.764Z,96495.34
2023-11-12T19:05:48.420Z,96493.03
2023-11-12T19:08:15.023Z,96490.59
2023-11-12T19:10:41.699Z,96506.66
2023-11-12T19:13:08.298Z,96505.16
2023-11-12T19:15:34.910Z,96507.81
2023-11-12T19:18:01.545Z,96506.66
2023-11-12T19:20:28.231Z,96500.31
2023-11-12T19:22:54.885Z,96495.09
2023-11-12T19:25:21.499Z,96506.06
2023-11-12T19:27:48.101Z,96510.69
2023-11-12T19:30:16.374Z,96520.44
2023-11-12T19:32:44.110Z,96520.53
2023-11-12T19:35:10.975Z,96512.09
2023-11-12T19:37:37.608Z,96518.84
2023-11-12T19:40:04.310Z,96525.81
2023-11-12T19:42:30.892Z,96521.16
2023-11-12T19:44:57.540Z,96518.03
2023-11-12T19:47:24.159Z,96514.50
2023-11-12T19:49:50.806Z,96504.66
2023-11-12T19:52:17.420Z,96513.25
2023-11-12T19:54:44.028Z,96515.44
2023-11-12T19:57:10.645Z,96518.66
2023-11-12T19:59:37.220Z,96521.06
2023-11-12T20:02:04.080Z,96517.94
2023-11-12T20:04:30.705Z,96526.84
2023-11-12T20:06:57.371Z,96526.97
2023-11-12T20:09:24.076Z,96528.56
2023-11-12T20:11:50.780Z,96528.28
2023-11-12T20:14:17.387Z,96527.16
2023-11-12T20:16:44.061Z,96524.06
2023-11-12T20:19:10.753Z,96523.28
2023-11-12T20:21:37.381Z,96523.91
2023-11-12T20:24:04.040Z,96530.03
2023-11-12T20:26:30.636Z,96543.69
2023-11-12T20:28:57.218Z,96556.25
2023-11-12T20:31:23.810Z,96553.44
2023-11-12T20:33:50.418Z,96549.44
2023-11-12T20:36:17.041Z,96550.75
2023-11-12T20:38:43.639Z,96566.88
2023-11-12T20:41:10.233Z,96570.00
2023-11-12T20:43:37.003Z,96572.75
2023-11-12T20:46:03.629Z,96572.38
2023-11-12T20:48:30.337Z,96572.72
2023-11-12T20:50:56.955Z,96567.00
2023-11-12T20:53:23.556Z,96563.69
2023-11-12T20:55:50.111Z,96549.16
2023-11-12T20:58:16.691Z,96550.25
2023-11-12T21:00:43.354Z,96554.63
2023-11-12T21:03:09.972Z,96543.56
2023-11-12T21:05:36.561Z,96550.63
2023-11-12T21:08:03.215Z,96566.38
2023-11-12T21:10:29.866Z,96566.69
2023-11-12T21:12:56.542Z,96556.97
2023-11-12T21:15:23.151Z,96570.69
2023-11-12T21:17:49.728Z,96576.63
2023-11-12T21:20:16.303Z,96577.41
2023-11-12T21:22:42.911Z,96574.75
2023-11-12T21:25:09.566Z,96578.88
2023-11-12T21:27:36.164Z,96582.09
2023-11-12T21:30:02.769Z,96587.84
2023-11-12T21:32:29.396Z,96585.19
2023-11-12T21:34:56.000Z,96594.25
2023-11-12T21:37:22.652Z,96587.53
2023-11-12T21:39:49.275Z,96592.53
2023-11-12T21:42:15.892Z,96594.09
2023-11-12T21:44:42.506Z,96585.50
